Time;durP1;ratioP1;P1;durP2;ratioP2;P2;SDS_P1;SDS_P2;PMS_P1;PMS_P2;Temp;Humidity;BMP_temperature;BMP_pressure;BME280_temperature;BME280_humidity;BME280_pressure;Samples;Min_cycle;Max_cycle;Signal;HPM_P1;HPM_P2
2023/09/19 00:00:25;;;;;;;5.55;1.15;;;13.50;99.90;;;;;;5027652;28;20578;-81
2023/09/19 00:02:57;;;;;;;8.93;2.25;;;13.40;99.90;;;;;;5028934;28;20100;-82
2023/09/19 00:05:24;;;;;;;5.65;1.05;;;13.40;99.90;;;;;;5015208;28;20125;-82
2023/09/19 00:07:59;;;;;;;6.10;1.13;;;13.30;99.90;;;;;;5007293;28;20049;-82
2023/09/19 00:10:26;;;;;;;6.15;1.00;;;13.30;99.90;;;;;;5006882;28;20056;-81
2023/09/19 00:12:55;;;;;;;5.03;1.20;;;13.20;99.90;;;;;;5014294;28;20132;-81
2023/09/19 00:15:28;;;;;;;10.18;1.30;;;13.10;99.90;;;;;;5009653;28;20530;-81
2023/09/19 00:17:54;;;;;;;10.43;1.95;;;13.10;99.90;;;;;;5011710;28;20224;-81
2023/09/19 00:20:22;;;;;;;5.85;1.20;;;13.00;99.90;;;;;;5009422;28;20060;-81
2023/09/19 00:22:50;;;;;;;6.25;1.30;;;13.00;99.90;;;;;;5047011;28;20032;-82
2023/09/19 00:25:16;;;;;;;6.50;1.48;;;12.90;99.90;;;;;;5038404;28;20041;-81
2023/09/19 00:27:43;;;;;;;5.28;1.20;;;12.90;99.90;;;;;;5007967;28;20427;-81
2023/09/19 00:30:21;;;;;;;10.63;2.28;;;12.90;99.90;;;;;;5012158;28;20373;-81
2023/09/19 00:32:48;;;;;;;9.13;1.63;;;12.90;99.90;;;;;;5009801;28;20360;-80
2023/09/19 00:35:15;;;;;;;6.38;1.10;;;12.70;99.90;;;;;;5007419;28;20049;-81
2023/09/19 00:37:41;;;;;;;3.53;1.00;;;12.80;99.90;;;;;;5025791;28;20029;-81
2023/09/19 00:40:12;;;;;;;15.52;1.90;;;12.70;99.90;;;;;;5008210;28;20048;-81
2023/09/19 00:42:47;;;;;;;10.85;1.60;;;12.70;99.90;;;;;;5012655;28;20063;-81
2023/09/19 00:45:15;;;;;;;6.27;1.30;;;12.60;99.90;;;;;;5026995;28;20033;-81
2023/09/19 00:47:49;;;;;;;7.15;1.40;;;12.60;99.90;;;;;;5039086;28;20076;-81
2023/09/19 00:50:19;;;;;;;5.32;1.20;;;12.60;99.90;;;;;;5021356;28;20076;-81
2023/09/19 00:52:50;;;;;;;9.55;2.22;;;12.50;99.90;;;;;;5027647;28;20041;-81
2023/09/19 00:55:18;;;;;;;9.48;1.50;;;12.50;99.90;;;;;;5032372;28;20060;-80
2023/09/19 00:57:44;;;;;;;7.25;1.40;;;12.50;99.90;;;;;;5029153;28;20116;-81
2023/09/19 01:00:14;;;;;;;9.05;1.20;;;12.40;99.90;;;;;;5012683;28;20593;-80
2023/09/19 01:02:44;;;;;;;5.82;1.20;;;12.40;99.90;;;;;;5028371;28;20049;-80
2023/09/19 01:05:10;;;;;;;8.10;1.67;;;12.40;99.90;;;;;;5005511;28;20048;-81
2023/09/19 01:07:36;;;;;;;5.50;1.23;;;12.30;99.90;;;;;;5001578;28;20395;-81
2023/09/19 01:10:09;;;;;;;9.10;1.63;;;12.30;99.90;;;;;;5027221;28;20029;-81
2023/09/19 01:12:59;;;;;;;9.15;1.90;;;12.30;99.90;;;;;;5029173;28;20145;-81
2023/09/19 01:15:42;;;;;;;4.60;1.25;;;12.30;99.90;;;;;;5008643;28;20052;-81
2023/09/19 01:18:14;;;;;;;8.48;1.70;;;12.30;99.90;;;;;;5005714;28;20064;-81
2023/09/19 01:21:00;;;;;;;9.32;2.13;;;12.30;99.90;;;;;;5018684;28;20056;-81
2023/09/19 01:23:38;;;;;;;7.78;2.47;;;12.30;99.90;;;;;;5025719;28;20056;-81
2023/09/19 01:26:55;;;;;;;7.22;1.55;;;12.40;99.90;;;;;;5016413;28;20485;-80
2023/09/19 01:29:44;;;;;;;7.13;2.28;;;12.50;99.90;;;;;;5025049;28;20037;-80
2023/09/19 01:32:13;;;;;;;6.28;1.90;;;12.40;99.90;;;;;;5027707;28;20072;-81
2023/09/19 01:34:49;;;;;;;6.80;1.77;;;12.40;99.90;;;;;;5030003;28;20033;-81
2023/09/19 01:37:25;;;;;;;;;;;12.40;99.90;;;;;;5016569;28;20072;-81
2023/09/19 01:40:03;;;;;;;10.10;1.77;;;12.40;99.90;;;;;;5012603;28;19921;-81
2023/09/19 01:42:43;;;;;;;7.13;1.45;;;12.30;99.90;;;;;;5049309;28;20425;-80
2023/09/19 01:45:13;;;;;;;11.70;2.13;;;12.30;99.90;;;;;;5024707;28;20041;-81
2023/09/19 01:47:49;;;;;;;11.50;1.92;;;12.30;99.90;;;;;;5054006;28;20041;-81
2023/09/19 01:50:41;;;;;;;6.53;1.58;;;12.20;99.90;;;;;;5031116;28;20044;-81
2023/09/19 01:53:15;;;;;;;9.15;1.90;;;12.20;99.90;;;;;;5047361;28;20115;-81
2023/09/19 01:55:51;;;;;;;9.05;1.42;;;12.20;99.90;;;;;;5044719;28;20413;-80
2023/09/19 01:58:39;;;;;;;10.90;2.45;;;12.10;99.90;;;;;;5048686;28;20033;-81
2023/09/19 02:01:08;;;;;;;5.43;1.38;;;12.20;99.90;;;;;;5051223;28;20036;-81
2023/09/19 02:03:36;;;;;;;7.65;1.77;;;12.10;99.90;;;;;;5046107;28;20079;-82
2023/09/19 02:06:03;;;;;;;7.57;1.30;;;12.10;99.90;;;;;;5056005;28;20033;-81
2023/09/19 02:08:33;;;;;;;9.35;1.70;;;12.10;99.90;;;;;;5050393;28;20442;-81
2023/09/19 02:10:59;;;;;;;12.57;2.33;;;12.00;99.90;;;;;;5032758;28;20055;-81
2023/09/19 02:13:28;;;;;;;7.57;1.80;;;12.00;99.90;;;;;;5052223;28;20072;-81
2023/09/19 02:15:54;;;;;;;9.20;1.83;;;12.00;99.90;;;;;;5050056;28;20639;-81
2023/09/19 02:18:19;;;;;;;10.98;1.90;;;11.90;99.90;;;;;;5047339;28;20124;-81
2023/09/19 02:20:46;;;;;;;10.05;2.53;;;11.80;99.90;;;;;;5048930;28;20124;-81
2023/09/19 02:23:12;;;;;;;12.63;1.95;;;11.80;99.90;;;;;;5034395;28;20063;-81
2023/09/19 02:25:40;;;;;;;5.95;2.03;;;11.80;99.90;;;;;;5037863;28;20036;-80
2023/09/19 02:28:05;;;;;;;10.35;1.65;;;11.80;99.90;;;;;;5032879;28;20051;-81
2023/09/19 02:30:32;;;;;;;8.75;2.10;;;11.80;99.90;;;;;;5044468;28;20036;-81
2023/09/19 02:32:58;;;;;;;7.15;1.77;;;11.70;99.90;;;;;;5048389;28;20040;-81
2023/09/19 02:35:25;;;;;;;7.78;1.77;;;11.80;99.90;;;;;;5029247;28;20666;-81
2023/09/19 02:37:51;;;;;;;11.05;1.80;;;11.80;99.90;;;;;;5030135;28;20043;-81
2023/09/19 02:40:20;;;;;;;20.52;2.15;;;11.70;99.90;;;;;;5045702;28;20044;-81
2023/09/19 02:42:52;;;;;;;10.07;1.73;;;11.80;99.90;;;;;;5042273;28;20029;-81
2023/09/19 02:45:22;;;;;;;10.00;1.70;;;11.70;99.90;;;;;;5032528;28;20047;-81
2023/09/19 02:47:48;;;;;;;9.75;1.88;;;11.70;99.90;;;;;;5031543;28;20135;-81
2023/09/19 02:50:17;;;;;;;10.25;1.70;;;11.80;99.90;;;;;;5053861;28;20119;-81
2023/09/19 02:52:44;;;;;;;7.47;1.52;;;11.80;99.90;;;;;;5026565;28;20048;-80
2023/09/19 02:55:17;;;;;;;7.97;1.70;;;11.80;99.90;;;;;;5048346;28;20048;-80
2023/09/19 02:57:54;;;;;;;8.25;1.70;;;11.80;99.90;;;;;;5047862;28;20734;-80
2023/09/19 03:00:20;;;;;;;7.82;1.95;;;11.80;99.90;;;;;;5045545;28;20067;-81
2023/09/19 03:02:48;;;;;;;8.63;1.52;;;11.80;99.90;;;;;;5048664;28;20044;-81
2023/09/19 03:05:13;;;;;;;11.85;2.17;;;11.80;99.90;;;;;;5044171;28;20055;-81
2023/09/19 03:07:39;;;;;;;7.82;1.70;;;11.80;99.90;;;;;;5031801;28;20487;-81
2023/09/19 03:10:08;;;;;;;11.88;2.03;;;11.70;99.90;;;;;;5048197;28;20033;-81
2023/09/19 03:12:34;;;;;;;6.53;1.90;;;11.80;99.90;;;;;;5039253;28;20395;-80
2023/09/19 03:15:00;;;;;;;9.18;1.80;;;11.80;99.90;;;;;;5049186;28;20045;-80
2023/09/19 03:17:25;;;;;;;7.78;2.65;;;11.90;99.90;;;;;;5045367;28;20468;-80
2023/09/19 03:19:51;;;;;;;6.60;1.77;;;11.90;99.90;;;;;;5029107;28;20522;-80
2023/09/19 03:22:18;;;;;;;6.13;1.65;;;12.00;99.90;;;;;;5033044;28;20044;-81
2023/09/19 03:24:44;;;;;;;6.40;1.58;;;12.00;99.90;;;;;;5049923;28;20052;-80
2023/09/19 03:27:10;;;;;;;7.88;1.70;;;12.10;99.90;;;;;;5051048;28;20041;-81
2023/09/19 03:29:36;;;;;;;10.35;1.67;;;12.10;99.90;;;;;;5047937;28;20139;-80
2023/09/19 03:32:03;;;;;;;8.45;2.05;;;12.20;99.90;;;;;;5060770;28;20127;-79
2023/09/19 03:34:29;;;;;;;7.43;1.65;;;12.30;99.90;;;;;;5037041;28;20077;-80
2023/09/19 03:36:55;;;;;;;5.60;1.40;;;12.30;99.90;;;;;;5040117;28;20048;-82
2023/09/19 03:39:21;;;;;;;5.57;1.80;;;12.30;99.90;;;;;;5060396;28;20087;-81
2023/09/19 03:41:46;;;;;;;7.53;1.52;;;12.30;99.90;;;;;;5025051;28;20084;-80
2023/09/19 03:44:12;;;;;;;9.13;2.22;;;12.20;99.90;;;;;;5049491;28;20406;-81
2023/09/19 03:46:38;;;;;;;4.05;1.30;;;12.20;99.90;;;;;;5032404;28;20485;-82
2023/09/19 03:49:04;;;;;;;4.22;1.23;;;12.10;99.90;;;;;;5026416;28;20036;-80
2023/09/19 03:51:30;;;;;;;9.20;1.70;;;12.10;99.90;;;;;;5026661;28;20571;-81
2023/09/19 03:53:56;;;;;;;5.20;1.52;;;11.90;99.90;;;;;;5046167;28;20686;-81
2023/09/19 03:56:21;;;;;;;9.57;2.28;;;11.90;99.90;;;;;;5035710;28;20052;-81
2023/09/19 03:58:47;;;;;;;3.83;1.52;;;11.80;99.90;;;;;;5031897;28;20044;-81
2023/09/19 04:01:13;;;;;;;7.53;1.67;;;11.80;99.90;;;;;;5056772;28;20126;-81
2023/09/19 04:03:48;;;;;;;4.40;2.33;;;11.80;99.90;;;;;;5047359;28;20324;-81
2023/09/19 04:06:15;;;;;;;15.35;1.70;;;11.70;99.90;;;;;;5038414;28;20078;-81
2023/09/19 04:08:41;;;;;;;4.05;1.35;;;11.70;99.90;;;;;;5035585;28;20486;-81
2023/09/19 04:11:07;;;;;;;8.00;1.60;;;11.80;99.90;;;;;;5039164;28;20044;-80
2023/09/19 04:13:33;;;;;;;7.55;1.38;;;11.80;99.90;;;;;;5030004;28;20458;-81
2023/09/19 04:15:58;;;;;;;10.57;1.70;;;11.90;99.90;;;;;;5028348;28;20048;-81
2023/09/19 04:18:25;;;;;;;7.72;1.67;;;11.90;99.90;;;;;;5042727;28;20109;-81
2023/09/19 04:20:50;;;;;;;5.13;1.30;;;11.90;99.90;;;;;;5064445;28;20076;-81
2023/09/19 04:23:16;;;;;;;9.02;1.77;;;12.10;99.90;;;;;;5033500;28;20075;-81
2023/09/19 04:25:43;;;;;;;9.55;1.63;;;12.00;99.90;;;;;;5034211;28;20528;-81
2023/09/19 04:28:10;;;;;;;9.38;1.67;;;12.10;99.90;;;;;;5023085;28;20704;-81
2023/09/19 04:30:37;;;;;;;4.95;1.70;;;12.10;99.90;;;;;;5039293;28;20053;-82
2023/09/19 04:33:03;;;;;;;5.43;1.60;;;12.20;99.90;;;;;;5040080;28;20131;-81
2023/09/19 04:35:31;;;;;;;7.20;1.42;;;12.30;99.90;;;;;;5058097;28;20131;-80
2023/09/19 04:37:57;;;;;;;8.88;1.58;;;12.30;99.90;;;;;;5028928;28;20040;-80
2023/09/19 04:40:26;;;;;;;7.30;1.45;;;12.30;99.90;;;;;;5023572;28;20053;-81
2023/09/19 04:42:59;;;;;;;6.07;2.03;;;12.40;99.90;;;;;;5039475;28;20174;-80
2023/09/19 04:45:28;;;;;;;8.52;2.20;;;12.40;99.90;;;;;;5046248;28;20565;-80
2023/09/19 04:47:54;;;;;;;6.32;1.70;;;12.50;99.90;;;;;;5050864;28;20040;-81
2023/09/19 04:50:21;;;;;;;5.93;2.15;;;12.50;99.90;;;;;;5033829;28;20581;-80
2023/09/19 04:52:50;;;;;;;5.55;1.50;;;12.50;99.90;;;;;;5053885;28;20047;-80
2023/09/19 04:55:20;;;;;;;10.32;1.65;;;12.50;99.90;;;;;;5065037;28;20514;-80
2023/09/19 04:57:50;;;;;;;5.38;1.73;;;12.70;99.90;;;;;;5038459;28;20036;-80
2023/09/19 05:00:19;;;;;;;7.75;2.00;;;12.70;99.90;;;;;;5059705;28;20080;-81
2023/09/19 05:02:46;;;;;;;6.45;2.33;;;12.60;99.90;;;;;;5048360;28;20123;-81
2023/09/19 05:05:14;;;;;;;5.55;1.77;;;12.60;99.90;;;;;;5058371;28;20454;-81
2023/09/19 05:07:41;;;;;;;10.95;1.92;;;12.70;99.90;;;;;;5052822;28;20037;-81
2023/09/19 05:10:07;;;;;;;10.88;2.28;;;12.60;99.90;;;;;;5055546;28;20024;-80
2023/09/19 05:12:34;;;;;;;10.38;1.80;;;12.60;99.90;;;;;;5047791;28;20036;-81
2023/09/19 05:15:01;;;;;;;6.95;1.80;;;12.70;99.90;;;;;;5042239;28;20048;-81
2023/09/19 05:17:27;;;;;;;6.07;1.73;;;12.70;99.90;;;;;;5048838;28;20036;-81
2023/09/19 05:19:52;;;;;;;12.88;2.30;;;12.60;99.90;;;;;;5053271;28;20040;-81
2023/09/19 05:22:18;;;;;;;6.93;1.90;;;12.70;99.90;;;;;;5033314;28;20090;-81
2023/09/19 05:24:47;;;;;;;6.93;2.03;;;12.70;99.90;;;;;;5047465;28;20049;-81
2023/09/19 05:27:16;;;;;;;8.15;1.80;;;12.70;99.90;;;;;;5032521;28;20093;-81
2023/09/19 05:29:45;;;;;;;8.70;2.10;;;12.60;99.90;;;;;;5049999;28;20049;-82
2023/09/19 05:32:11;;;;;;;15.68;2.20;;;12.60;99.90;;;;;;5048170;28;20056;-79
2023/09/19 05:34:38;;;;;;;7.93;2.45;;;12.60;99.90;;;;;;5047012;28;20490;-81
2023/09/19 05:37:07;;;;;;;8.73;2.28;;;12.60;99.90;;;;;;5035286;28;20039;-81
2023/09/19 05:39:33;;;;;;;5.93;1.88;;;12.60;99.90;;;;;;5048729;28;20040;-80
2023/09/19 05:42:00;;;;;;;8.45;2.00;;;12.60;99.90;;;;;;5060675;28;20045;-80
2023/09/19 05:44:26;;;;;;;10.45;2.45;;;12.60;99.90;;;;;;5037882;28;20082;-80
2023/09/19 05:46:51;;;;;;;9.90;2.50;;;12.60;99.90;;;;;;5054543;28;20101;-80
2023/09/19 05:49:18;;;;;;;7.00;2.63;;;12.60;99.90;;;;;;5050684;28;20495;-79
2023/09/19 05:51:43;;;;;;;14.05;2.40;;;12.60;99.90;;;;;;5054574;28;20228;-81
2023/09/19 05:54:10;;;;;;;6.55;1.83;;;12.60;99.90;;;;;;5048014;28;20518;-80
2023/09/19 05:56:36;;;;;;;8.38;2.15;;;12.50;99.90;;;;;;5051205;28;20048;-80
2023/09/19 05:59:03;;;;;;;9.50;1.73;;;12.60;99.90;;;;;;5047106;28;20048;-81
2023/09/19 06:01:32;;;;;;;6.78;1.88;;;12.60;99.90;;;;;;5032128;28;20101;-79
2023/09/19 06:04:00;;;;;;;9.60;1.90;;;12.50;99.90;;;;;;5031747;28;20056;-80
2023/09/19 06:06:26;;;;;;;12.90;2.33;;;12.50;99.90;;;;;;5044882;28;20067;-80
2023/09/19 06:08:52;;;;;;;5.57;1.83;;;12.50;99.90;;;;;;5053211;28;20037;-80
2023/09/19 06:11:20;;;;;;;9.88;2.08;;;12.50;99.90;;;;;;5039952;28;20495;-80
2023/09/19 06:13:47;;;;;;;13.35;2.60;;;12.40;99.90;;;;;;5049633;28;20048;-80
2023/09/19 06:16:13;;;;;;;11.95;2.15;;;12.30;99.90;;;;;;5050984;28;20047;-80
2023/09/19 06:18:39;;;;;;;19.40;2.50;;;12.30;99.90;;;;;;5027340;28;20044;-80
2023/09/19 06:21:07;;;;;;;9.77;1.85;;;12.40;99.90;;;;;;5048063;28;20056;-80
2023/09/19 06:23:34;;;;;;;8.80;2.38;;;12.40;99.90;;;;;;5042649;28;20261;-80
2023/09/19 06:26:00;;;;;;;10.02;2.25;;;12.40;99.90;;;;;;5051106;28;20650;-80
2023/09/19 06:28:27;;;;;;;15.65;3.17;;;12.40;99.90;;;;;;5050565;28;20044;-80
2023/09/19 06:30:54;;;;;;;6.85;1.73;;;12.50;99.90;;;;;;5049788;28;20124;-80
2023/09/19 06:33:21;;;;;;;11.60;2.00;;;12.50;99.90;;;;;;5050334;28;20195;-80
2023/09/19 06:35:47;;;;;;;6.13;1.27;;;12.50;99.90;;;;;;5051365;28;20098;-79
2023/09/19 06:38:15;;;;;;;7.90;1.80;;;12.50;99.90;;;;;;5042111;28;20530;-80
2023/09/19 06:40:43;;;;;;;8.75;1.25;;;12.40;99.90;;;;;;5025680;28;20091;-80
2023/09/19 06:43:10;;;;;;;9.93;2.10;;;12.50;99.90;;;;;;5037717;28;20037;-80
2023/09/19 06:45:36;;;;;;;8.18;1.75;;;12.40;99.90;;;;;;5051066;28;20074;-80
2023/09/19 06:48:03;;;;;;;15.65;2.03;;;12.40;99.90;;;;;;5043196;28;20767;-80
2023/09/19 06:50:30;;;;;;;7.30;1.80;;;12.30;99.90;;;;;;5052300;28;20032;-80
2023/09/19 06:52:59;;;;;;;6.03;1.85;;;12.30;99.90;;;;;;5026808;28;20089;-81
2023/09/19 06:55:27;;;;;;;6.40;1.58;;;12.30;99.90;;;;;;5047369;28;20041;-80
2023/09/19 06:57:57;;;;;;;12.23;2.15;;;12.40;99.90;;;;;;5044084;28;20633;-80
2023/09/19 07:00:23;;;;;;;9.35;2.65;;;12.30;99.90;;;;;;5049854;28;20047;-80
2023/09/19 07:02:56;;;;;;;8.43;1.60;;;12.40;99.90;;;;;;5040487;28;20040;-80
2023/09/19 07:05:21;;;;;;;6.30;1.52;;;12.40;99.90;;;;;;5047704;28;20041;-80
2023/09/19 07:07:47;;;;;;;9.88;2.00;;;12.40;99.90;;;;;;5050868;28;20037;-80
2023/09/19 07:10:14;;;;;;;8.98;1.85;;;12.50;99.90;;;;;;5050029;28;20495;-80
2023/09/19 07:12:41;;;;;;;7.85;1.83;;;12.50;99.90;;;;;;5034098;28;20048;-81
2023/09/19 07:15:07;;;;;;;9.38;1.60;;;12.40;99.90;;;;;;5050514;28;20044;-80
2023/09/19 07:17:33;;;;;;;11.63;1.60;;;12.40;99.90;;;;;;5050608;28;20115;-80
2023/09/19 07:19:58;;;;;;;8.23;1.55;;;12.50;99.90;;;;;;5040764;28;20047;-79
2023/09/19 07:22:26;;;;;;;8.20;1.60;;;12.50;99.90;;;;;;5040827;28;20040;-80
2023/09/19 07:24:51;;;;;;;6.75;1.50;;;12.60;99.90;;;;;;5029610;28;20051;-80
2023/09/19 07:27:17;;;;;;;7.55;2.03;;;12.80;99.90;;;;;;5049761;28;20032;-80
2023/09/19 07:29:43;;;;;;;8.32;2.13;;;13.00;99.90;;;;;;5061471;28;20033;-81
2023/09/19 07:32:10;;;;;;;6.30;1.45;;;13.10;99.90;;;;;;5050071;28;20100;-80
2023/09/19 07:34:35;;;;;;;7.82;1.58;;;13.20;99.90;;;;;;5044943;28;20144;-80
2023/09/19 07:37:02;;;;;;;10.77;1.55;;;13.40;99.90;;;;;;5026983;28;20152;-80
2023/09/19 07:39:28;;;;;;;6.22;1.63;;;13.40;99.90;;;;;;5033336;28;20049;-80
2023/09/19 07:41:54;;;;;;;4.60;1.48;;;13.40;99.90;;;;;;5029786;28;20051;-80
2023/09/19 07:44:20;;;;;;;8.77;1.48;;;13.50;99.90;;;;;;5043614;28;20091;-80
2023/09/19 07:46:45;;;;;;;10.00;1.90;;;13.40;99.90;;;;;;5031623;28;20490;-80
2023/09/19 07:49:11;;;;;;;13.50;1.88;;;13.40;99.90;;;;;;5041277;28;20047;-79
2023/09/19 07:51:37;;;;;;;8.40;1.52;;;13.50;99.90;;;;;;5035785;28;20128;-80
2023/09/19 07:54:03;;;;;;;4.00;1.20;;;13.50;99.90;;;;;;5017310;28;20033;-79
2023/09/19 07:56:29;;;;;;;9.43;1.58;;;13.40;99.90;;;;;;5060713;28;20048;-80
2023/09/19 07:58:54;;;;;;;7.35;1.35;;;13.30;99.90;;;;;;5049268;28;20048;-79
2023/09/19 08:01:23;;;;;;;6.32;1.52;;;13.40;99.90;;;;;;5048487;28;20055;-79
2023/09/19 08:03:49;;;;;;;8.60;1.48;;;13.40;99.90;;;;;;5047515;28;20044;-80
2023/09/19 08:06:15;;;;;;;8.50;1.35;;;13.40;99.90;;;;;;5046194;28;20521;-80
2023/09/19 08:08:40;;;;;;;6.68;2.22;;;13.40;99.90;;;;;;5030813;28;20039;-79
2023/09/19 08:11:11;;;;;;;5.72;1.55;;;13.50;99.90;;;;;;5050947;28;20456;-80
2023/09/19 08:13:43;;;;;;;9.82;2.85;;;13.70;99.90;;;;;;5053019;28;20372;-79
2023/09/19 08:16:10;;;;;;;7.18;2.30;;;13.80;99.90;;;;;;5045564;28;20044;-79
2023/09/19 08:18:37;;;;;;;6.28;1.45;;;13.80;99.90;;;;;;5040426;28;20678;-80
2023/09/19 08:21:03;;;;;;;8.20;1.50;;;13.70;99.90;;;;;;5020775;28;20041;-80
2023/09/19 08:23:28;;;;;;;8.88;1.73;;;13.80;99.90;;;;;;5046270;28;20049;-81
2023/09/19 08:25:58;;;;;;;7.45;2.28;;;13.90;99.90;;;;;;5042821;28;20047;-80
2023/09/19 08:28:24;;;;;;;9.00;1.63;;;13.90;99.90;;;;;;5038322;28;20044;-80
2023/09/19 08:30:51;;;;;;;4.70;1.55;;;13.90;99.90;;;;;;5037019;28;20496;-81
2023/09/19 08:33:16;;;;;;;7.65;1.90;;;13.90;99.90;;;;;;5034852;28;20049;-82
2023/09/19 08:35:42;;;;;;;5.78;1.83;;;14.00;99.90;;;;;;5039113;28;20093;-80
2023/09/19 08:38:10;;;;;;;9.05;2.25;;;14.10;99.90;;;;;;5034720;28;20036;-80
2023/09/19 08:40:41;;;;;;;10.30;2.00;;;14.20;99.90;;;;;;5038854;28;20091;-81
2023/09/19 08:43:07;;;;;;;7.20;1.98;;;14.30;99.90;;;;;;5014235;28;20033;-81
2023/09/19 08:45:34;;;;;;;10.25;2.30;;;14.40;99.90;;;;;;5027899;28;20037;-80
2023/09/19 08:48:24;;;;;;;9.20;2.33;;;14.50;99.90;;;;;;5047791;28;20135;-80
2023/09/19 08:51:37;;;;;;;10.27;2.45;;;14.70;99.90;;;;;;5043167;28;20072;-81
2023/09/19 08:54:13;;;;;;;10.65;2.10;;;14.90;99.90;;;;;;5004263;28;20127;-81
2023/09/19 08:56:39;;;;;;;9.63;2.33;;;15.10;99.90;;;;;;5046387;28;20506;-81
2023/09/19 08:59:11;;;;;;;10.05;2.10;;;15.20;99.90;;;;;;5047079;28;20040;-81
2023/09/19 09:01:39;;;;;;;10.07;2.05;;;15.30;99.90;;;;;;5025319;28;20384;-81
2023/09/19 09:04:09;;;;;;;7.47;2.13;;;15.60;99.90;;;;;;5030731;28;20032;-81
2023/09/19 09:06:35;;;;;;;6.30;2.00;;;15.60;99.90;;;;;;5046177;28;20408;-81
2023/09/19 09:09:03;;;;;;;11.73;2.75;;;15.80;99.90;;;;;;5021190;28;20040;-81
2023/09/19 09:11:28;;;;;;;11.50;1.88;;;15.90;99.90;;;;;;5027246;28;20950;-81
2023/09/19 09:13:54;;;;;;;10.25;1.75;;;15.90;99.90;;;;;;5039265;28;20052;-81
2023/09/19 09:16:20;;;;;;;7.25;2.10;;;15.90;99.90;;;;;;5039521;28;20067;-81
2023/09/19 09:18:52;;;;;;;8.93;1.80;;;16.00;99.90;;;;;;5024374;28;20499;-81
2023/09/19 09:21:18;;;;;;;11.70;1.73;;;16.20;99.90;;;;;;5031726;28;20049;-81
2023/09/19 09:23:44;;;;;;;10.10;3.03;;;16.20;99.90;;;;;;5032305;28;20246;-81
2023/09/19 09:26:10;;;;;;;11.13;2.15;;;16.30;99.90;;;;;;5047917;28;20033;-81
2023/09/19 09:28:38;;;;;;;10.13;2.03;;;16.30;99.90;;;;;;5030169;28;20056;-81
2023/09/19 09:31:12;;;;;;;7.93;2.40;;;16.20;99.90;;;;;;5030708;28;20036;-81
2023/09/19 09:33:39;;;;;;;8.50;1.70;;;16.40;99.90;;;;;;5036386;28;20056;-81
2023/09/19 09:36:06;;;;;;;8.30;2.08;;;16.60;99.90;;;;;;5046819;28;20055;-81
2023/09/19 09:38:58;;;;;;;7.30;1.55;;;16.80;99.90;;;;;;5045113;28;20040;-81
2023/09/19 09:41:37;;;;;;;5.20;2.10;;;16.80;99.90;;;;;;5027068;28;20439;-81
2023/09/19 09:44:15;;;;;;;9.23;2.13;;;17.10;99.90;;;;;;5048763;28;20115;-81
2023/09/19 09:49:27;;;;;;;7.40;2.10;;;17.80;99.90;;;;;;5044560;28;20073;-81
2023/09/19 09:52:00;;;;;;;9.75;1.40;;;17.90;99.90;;;;;;5030952;28;20048;-81
2023/09/19 09:54:36;;;;;;;4.80;1.38;;;18.20;99.90;;;;;;5043168;28;20044;-80
2023/09/19 09:57:20;;;;;;;;;;;18.40;99.90;;;;;;5027244;28;20036;-81
2023/09/19 09:59:47;;;;;;;5.50;1.42;;;18.30;1.00;;;;;;5027438;28;19928;-81
2023/09/19 10:02:23;;;;;;;4.80;1.30;;;18.60;99.90;;;;;;5043711;28;20441;-81
2023/09/19 10:05:51;;;;;;;7.55;2.13;;;18.60;99.90;;;;;;5038034;28;20115;-81
2023/09/19 10:07:50;;;;;;;4.80;1.37;;;18.30;99.90;;;;;;5036781;28;20513;-81
2023/09/19 10:10:44;;;;;;;10.98;2.83;;;17.90;99.90;;;;;;5030589;28;20032;-81
2023/09/19 10:13:21;;;;;;;5.07;1.58;;;18.10;99.90;;;;;;5030569;28;20048;-81
2023/09/19 10:15:53;;;;;;;8.15;1.38;;;18.20;99.90;;;;;;5021386;28;20041;-81
2023/09/19 10:18:20;;;;;;;6.82;1.60;;;18.20;99.90;;;;;;5042919;28;20175;-81
2023/09/19 10:20:48;;;;;;;6.97;1.30;;;18.20;30.00;;;;;;5049025;28;20083;-81
2023/09/19 10:23:20;;;;;;;10.05;1.88;;;18.70;99.90;;;;;;5029952;28;20044;-83
2023/09/19 10:25:47;;;;;;;13.88;2.60;;;18.80;22.20;;;;;;5038215;28;20048;-81
2023/09/19 10:28:15;;;;;;;2.95;1.52;;;19.40;99.90;;;;;;5026758;28;20118;-82
2023/09/19 10:30:47;;;;;;;9.65;1.67;;;19.90;99.90;;;;;;5048433;28;20051;-82
2023/09/19 10:33:14;;;;;;;7.75;1.38;;;20.20;99.90;;;;;;5049049;28;20055;-81
2023/09/19 10:35:46;;;;;;;4.82;1.63;;;20.40;93.40;;;;;;5046393;28;20125;-82
2023/09/19 10:38:17;;;;;;;6.35;1.73;;;20.20;1.00;;;;;;5045251;28;20045;-82
2023/09/19 10:40:43;;;;;;;9.38;1.30;;;20.20;90.60;;;;;;5038556;28;20059;-81
2023/09/19 10:43:18;;;;;;;9.02;1.63;;;20.30;1.00;;;;;;5044834;28;20111;-82
2023/09/19 10:45:49;;;;;;;11.27;2.13;;;20.50;99.90;;;;;;5032177;28;20049;-81
2023/09/19 10:48:19;;;;;;;7.88;2.10;;;20.20;1.00;;;;;;5036767;28;20040;-82
2023/09/19 10:51:06;;;;;;;8.00;1.80;;;19.50;99.90;;;;;;5042960;28;20063;-82
2023/09/19 10:54:06;;;;;;;8.35;1.90;;;19.10;1.00;;;;;;5031738;28;20051;-82
2023/09/19 10:56:41;;;;;;;9.05;1.75;;;18.90;99.90;;;;;;5027834;28;20087;-82
2023/09/19 10:59:10;;;;;;;6.30;1.52;;;19.20;1.00;;;;;;5042804;28;20036;-82
2023/09/19 11:01:56;;;;;;;5.57;2.28;;;19.70;20.80;;;;;;5049750;28;20107;-82
2023/09/19 11:04:27;;;;;;;6.78;1.63;;;20.00;1.00;;;;;;5026752;28;20490;-83
2023/09/19 11:07:14;;;;;;;14.65;1.67;;;19.80;1.00;;;;;;5034952;28;20044;-82
2023/09/19 11:10:01;;;;;;;10.15;1.60;;;19.30;99.90;;;;;;5050815;28;20552;-82
2023/09/19 11:12:45;;;;;;;5.95;2.25;;;19.20;1.00;;;;;;5042207;28;20123;-81
2023/09/19 11:15:49;;;;;;;7.43;1.55;;;19.50;89.30;;;;;;5051633;28;20048;-82
2023/09/19 11:18:41;;;;;;;5.35;1.45;;;19.70;99.90;;;;;;5041948;28;20048;-82
2023/09/19 11:21:32;;;;;;;7.55;1.58;;;19.60;1.00;;;;;;5060400;28;20048;-82
2023/09/19 11:24:10;;;;;;;7.50;1.52;;;19.70;1.00;;;;;;5039096;28;20112;-82
2023/09/19 11:26:48;;;;;;;4.13;1.25;;;19.70;1.00;;;;;;5049523;28;20098;-82
2023/09/19 11:29:31;;;;;;;5.10;1.40;;;19.60;99.90;;;;;;5041060;28;20036;-82
2023/09/19 11:31:59;;;;;;;5.32;1.50;;;19.70;1.00;;;;;;5022135;28;20048;-81
2023/09/19 11:34:41;;;;;;;9.07;2.05;;;19.80;1.00;;;;;;5035804;28;20072;-81
2023/09/19 11:37:11;;;;;;;6.20;1.50;;;19.70;99.90;;;;;;5042036;28;20522;-82
2023/09/19 11:39:41;;;;;;;5.05;1.73;;;19.80;1.00;;;;;;5048125;28;20048;-81
2023/09/19 11:42:45;;;;;;;5.20;1.35;;;20.00;1.00;;;;;;5050032;28;20497;-81
2023/09/19 11:45:40;;;;;;;6.65;1.70;;;19.90;99.90;;;;;;5043804;28;20572;-82
2023/09/19 11:48:07;;;;;;;5.82;1.38;;;19.70;99.90;;;;;;5047616;28;20045;-81
2023/09/19 11:50:36;;;;;;;5.75;1.35;;;19.90;1.00;;;;;;5042163;28;20044;-82
2023/09/19 11:53:02;;;;;;;4.93;1.20;;;19.90;1.00;;;;;;5034917;28;20079;-82
2023/09/19 11:55:34;;;;;;;8.00;1.75;;;19.90;1.00;;;;;;5046289;28;20123;-82
2023/09/19 11:58:00;;;;;;;7.63;1.40;;;20.10;1.00;;;;;;5032826;28;20127;-82
2023/09/19 12:00:27;;;;;;;6.78;1.30;;;19.90;1.00;;;;;;5043569;28;20079;-82
2023/09/19 12:03:01;;;;;;;7.32;1.63;;;19.60;1.00;;;;;;5031044;28;20116;-81
2023/09/19 12:05:33;;;;;;;5.82;1.38;;;19.60;1.00;;;;;;5045112;28;20040;-81
2023/09/19 12:07:59;;;;;;;6.30;1.65;;;19.40;99.90;;;;;;5032929;28;20044;-81
2023/09/19 12:10:24;;;;;;;7.38;1.52;;;19.10;1.00;;;;;;5033198;28;20040;-80
2023/09/19 12:12:52;;;;;;;6.05;2.28;;;19.00;1.00;;;;;;5049496;28;20063;-81
2023/09/19 12:15:33;;;;;;;6.72;1.98;;;19.00;1.00;;;;;;5033190;28;20513;-81
2023/09/19 12:18:00;;;;;;;6.75;1.83;;;19.20;1.00;;;;;;5043301;28;20105;-81
2023/09/19 12:20:41;;;;;;;4.88;1.40;;;19.30;1.00;;;;;;5048048;28;20182;-82
2023/09/19 12:23:14;;;;;;;6.45;1.55;;;19.20;1.00;;;;;;5037778;28;20052;-82
2023/09/19 12:25:47;;;;;;;5.70;1.27;;;19.00;1.00;;;;;;5022585;28;20044;-82
2023/09/19 12:28:22;;;;;;;3.65;1.30;;;18.80;1.00;;;;;;5031748;28;20086;-81
2023/09/19 12:30:47;;;;;;;8.23;1.40;;;18.60;1.00;;;;;;5047396;28;20040;-82
2023/09/19 12:33:21;;;;;;;6.80;1.60;;;18.40;1.00;;;;;;5029052;28;20109;-82
2023/09/19 12:35:47;;;;;;;9.60;1.55;;;18.30;1.00;;;;;;5048727;28;20529;-82
2023/09/19 12:38:28;;;;;;;8.32;1.27;;;18.20;1.00;;;;;;5047899;28;20123;-81
2023/09/19 12:41:01;;;;;;;3.78;1.63;;;18.20;99.90;;;;;;5037809;28;20083;-81
2023/09/19 12:43:33;;;;;;;4.72;1.17;;;18.20;1.00;;;;;;5046867;28;20459;-81
2023/09/19 12:45:59;;;;;;;4.63;1.02;;;18.30;1.00;;;;;;5042043;28;20434;-82
2023/09/19 12:48:29;;;;;;;5.78;1.88;;;18.50;1.00;;;;;;5040323;28;20436;-81
2023/09/19 12:51:07;;;;;;;7.28;1.45;;;18.50;1.00;;;;;;5056668;28;20093;-81
2023/09/19 12:53:46;;;;;;;11.13;1.60;;;18.50;2.40;;;;;;5047700;28;20047;-81
2023/09/19 12:56:17;;;;;;;3.75;1.05;;;18.60;1.00;;;;;;5032902;28;20044;-82
2023/09/19 12:58:56;;;;;;;4.25;1.30;;;18.60;1.00;;;;;;5033776;28;20090;-80
2023/09/19 13:01:29;;;;;;;6.38;1.90;;;18.50;99.90;;;;;;5042344;28;20063;-82
2023/09/19 13:04:25;;;;;;;10.60;1.88;;;18.40;1.00;;;;;;5049719;28;20089;-81